Station Historical Data
Daily Summary for May 30, 2017 Units:  Both    English   Metric
« Previous Day
Next Day »
Daily Weekly Monthly Yearly Custom
  High: Low: Average:
Temperature: 74.6 °F /  23.7 °C 57.7 °F /  14.3 °C 65.5 °F /  18.6 °C
Dew Point: 58.2 °F /  14.6 °C 46.7 °F /  8.2 °C 52.8 °F /  11.6 °C
Humidity: 88% 41% 65%
Wind Speed: 14.0mph /  22.5km/h - 4.1mph /  6.6km/h
Wind Gust: 19.0mph /  30.6km/h - -
Wind- - SW
Pressure: 29.95 in /  1014.1 hPa 29.87 in /  1011.4 hPa -
Precipitation: 0.00 in /  0 mm    
Historical Graphs
 
 
Tabular Data for May 30, 2017
Time Temperature Dew Point Pressure Wind Wind Speed Wind Gust Humidity Rainfall Rate (Hourly)
00:04 64.7 °F /  18.2 °C 53.1 °F /  11.7 °C 29.88in /  1011.7hPa SW 1.0mph /  1.6km/h 6.0mph /  9.7km/h 66% 0.00in /  0mm
00:09 64.6 °F /  18.1 °C 53.0 °F /  11.7 °C 29.88in /  1011.7hPa WSW 2.0mph /  3.2km/h 6.0mph /  9.7km/h 66% 0.00in /  0mm
00:14 64.6 °F /  18.1 °C 53.4 °F /  11.9 °C 29.88in /  1011.7hPa WSW 2.0mph /  3.2km/h 5.0mph /  8km/h 67% 0.00in /  0mm
00:19 64.4 °F /  18 °C 53.2 °F /  11.8 °C 29.88in /  1011.7hPa West 2.0mph /  3.2km/h 4.0mph /  6.4km/h 67% 0.00in /  0mm
00:24 64.0 °F /  17.8 °C 53.6 °F /  12 °C 29.88in /  1011.7hPa WSW 2.0mph /  3.2km/h 4.0mph /  6.4km/h 69% 0.00in /  0mm
00:29 63.6 °F /  17.6 °C 53.6 °F /  12 °C 29.88in /  1011.7hPa WSW 2.0mph /  3.2km/h 4.0mph /  6.4km/h 70% 0.00in /  0mm
00:34 63.0 °F /  17.2 °C 53.8 °F /  12.1 °C 29.87in /  1011.4hPa SW 2.0mph /  3.2km/h 3.0mph /  4.8km/h 72% 0.00in /  0mm
00:39 62.5 °F /  16.9 °C 53.7 °F /  12.1 °C 29.87in /  1011.4hPa SW 1.0mph /  1.6km/h 2.0mph /  3.2km/h 73% 0.00in /  0mm
00:44 61.9 °F /  16.6 °C 53.5 °F /  11.9 °C 29.87in /  1011.4hPa SW 1.0mph /  1.6km/h 2.0mph /  3.2km/h 74% 0.00in /  0mm
00:49 61.3 °F /  16.3 °C 53.3 °F /  11.8 °C 29.87in /  1011.4hPa Calm   1.0mph /  1.6km/h 75% 0.00in /  0mm
00:54 60.9 °F /  16.1 °C 53.3 °F /  11.8 °C 29.87in /  1011.4hPa Calm   1.0mph /  1.6km/h 76% 0.00in /  0mm
00:59 60.6 °F /  15.9 °C 53.0 °F /  11.7 °C 29.87in /  1011.4hPa Calm     76% 0.00in /  0mm
01:04 60.4 °F /  15.8 °C 53.2 °F /  11.8 °C 29.87in /  1011.4hPa SW 1.0mph /  1.6km/h 3.0mph /  4.8km/h 77% 0.00in /  0mm
01:09 60.9 °F /  16.1 °C 53.3 °F /  11.8 °C 29.87in /  1011.4hPa SW 2.0mph /  3.2km/h 7.0mph /  11.3km/h 76% 0.00in /  0mm
01:14 61.6 °F /  16.4 °C 53.6 °F /  12 °C 29.87in /  1011.4hPa SSW 2.0mph /  3.2km/h 5.0mph /  8km/h 75% 0.00in /  0mm
01:19 62.0 °F /  16.7 °C 53.6 °F /  12 °C 29.87in /  1011.4hPa SSW 1.0mph /  1.6km/h 6.0mph /  9.7km/h 74% 0.00in /  0mm
01:24 61.8 °F /  16.6 °C 53.4 °F /  11.9 °C 29.87in /  1011.4hPa SSW 2.0mph /  3.2km/h 6.0mph /  9.7km/h 74% 0.00in /  0mm
01:29 61.7 °F /  16.5 °C 53.7 °F /  12.1 °C 29.87in /  1011.4hPa SSW 1.0mph /  1.6km/h 4.0mph /  6.4km/h 75% 0.00in /  0mm
01:34 61.4 °F /  16.3 °C 53.4 °F /  11.9 °C 29.87in /  1011.4hPa Calm   3.0mph /  4.8km/h 75% 0.00in /  0mm
01:39 61.1 °F /  16.2 °C 53.5 °F /  11.9 °C 29.87in /  1011.4hPa Calm   2.0mph /  3.2km/h 76% 0.00in /  0mm
01:44 60.9 °F /  16.1 °C 53.3 °F /  11.8 °C 29.88in /  1011.7hPa Calm   2.0mph /  3.2km/h 76% 0.00in /  0mm
01:49 61.2 °F /  16.2 °C 53.6 °F /  12 °C 29.89in /  1012.1hPa WSW 1.0mph /  1.6km/h 5.0mph /  8km/h 76% 0.00in /  0mm
01:54 61.6 °F /  16.4 °C 54.0 °F /  12.2 °C 29.89in /  1012.1hPa West 1.0mph /  1.6km/h 3.0mph /  4.8km/h 76% 0.00in /  0mm
01:59 61.8 °F /  16.6 °C 53.8 °F /  12.1 °C 29.89in /  1012.1hPa Calm   3.0mph /  4.8km/h 75% 0.00in /  0mm
02:04 62.0 °F /  16.7 °C 54.0 °F /  12.2 °C 29.89in /  1012.1hPa Calm   2.0mph /  3.2km/h 75% 0.00in /  0mm
02:09 62.1 °F /  16.7 °C 54.4 °F /  12.4 °C 29.89in /  1012.1hPa West 1.0mph /  1.6km/h 2.0mph /  3.2km/h 76% 0.00in /  0mm
02:14 62.1 °F /  16.7 °C 54.8 °F /  12.7 °C 29.90in /  1012.4hPa WSW 2.0mph /  3.2km/h 4.0mph /  6.4km/h 77% 0.00in /  0mm
02:19 62.2 °F /  16.8 °C 54.9 °F /  12.7 °C 29.91in /  1012.8hPa West 2.0mph /  3.2km/h 6.0mph /  9.7km/h 77% 0.00in /  0mm
02:24 62.4 °F /  16.9 °C 55.1 °F /  12.8 °C 29.91in /  1012.8hPa West 5.0mph /  8km/h 17.0mph /  27.4km/h 77% 0.00in /  0mm
02:29 62.4 °F /  16.9 °C 55.1 °F /  12.8 °C 29.90in /  1012.4hPa West 7.0mph /  11.3km/h 17.0mph /  27.4km/h 77% 0.00in /  0mm
02:34 61.9 °F /  16.6 °C 55.0 °F /  12.8 °C 29.92in /  1013.1hPa West 5.0mph /  8km/h 13.0mph /  20.9km/h 78% 0.01in /  0.25mm
02:39 61.3 °F /  16.3 °C 54.4 °F /  12.4 °C 29.92in /  1013.1hPa WSW 6.0mph /  9.7km/h 11.0mph /  17.7km/h 78% 0.02in /  0.51mm
02:44 60.6 °F /  15.9 °C 54.4 °F /  12.4 °C 29.92in /  1013.1hPa SSW 2.0mph /  3.2km/h 7.0mph /  11.3km/h 80% 0.04in /  1.02mm
02:49 60.0 °F /  15.6 °C 54.5 °F /  12.5 °C 29.92in /  1013.1hPa SW 3.0mph /  4.8km/h 7.0mph /  11.3km/h 82% 0.05in /  1.27mm
02:54 59.5 °F /  15.3 °C 54.7 °F /  12.6 °C 29.91in /  1012.8hPa SSW 2.0mph /  3.2km/h 7.0mph /  11.3km/h 84% 0.06in /  1.52mm
02:59 59.2 °F /  15.1 °C 54.7 °F /  12.6 °C 29.90in /  1012.4hPa South 2.0mph /  3.2km/h 7.0mph /  11.3km/h 85% 0.07in /  1.78mm
03:04 59.1 °F /  15.1 °C 54.6 °F /  12.6 °C 29.89in /  1012.1hPa Calm   3.0mph /  4.8km/h 85% 0.07in /  1.78mm
03:09 59.0 °F /  15 °C 54.8 °F /  12.7 °C 29.88in /  1011.7hPa Calm   2.0mph /  3.2km/h 86% 0.07in /  1.78mm
03:14 58.9 °F /  14.9 °C 54.7 °F /  12.6 °C 29.87in /  1011.4hPa Calm     86% 0.07in /  1.78mm
03:19 58.6 °F /  14.8 °C 54.4 °F /  12.4 °C 29.87in /  1011.4hPa South 4.0mph /  6.4km/h 4.0mph /  6.4km/h 86% 0.07in /  1.78mm
03:24 58.5 °F /  14.7 °C 54.6 °F /  12.6 °C 29.88in /  1011.7hPa South 1.0mph /  1.6km/h 4.0mph /  6.4km/h 87% 0.07in /  1.78mm
03:29 58.5 °F /  14.7 °C 54.6 °F /  12.6 °C 29.88in /  1011.7hPa SSE 3.0mph /  4.8km/h 6.0mph /  9.7km/h 87% 0.07in /  1.78mm
03:34 58.5 °F /  14.7 °C 54.6 °F /  12.6 °C 29.88in /  1011.7hPa SSE 3.0mph /  4.8km/h 6.0mph /  9.7km/h 87% 0.06in /  1.52mm
03:39 58.6 °F /  14.8 °C 55.1 °F /  12.8 °C 29.89in /  1012.1hPa SSW 1.0mph /  1.6km/h 4.0mph /  6.4km/h 88% 0.05in /  1.27mm
03:44 58.6 °F /  14.8 °C 55.1 °F /  12.8 °C 29.90in /  1012.4hPa SSW 2.0mph /  3.2km/h 4.0mph /  6.4km/h 88% 0.03in /  0.76mm
03:49 58.4 °F /  14.7 °C 54.9 °F /  12.7 °C 29.90in /  1012.4hPa South 2.0mph /  3.2km/h 6.0mph /  9.7km/h 88% 0.02in /  0.51mm
03:54 58.4 °F /  14.7 °C 54.9 °F /  12.7 °C 29.90in /  1012.4hPa SSW 1.0mph /  1.6km/h 4.0mph /  6.4km/h 88% 0.01in /  0.25mm
03:59 58.4 °F /  14.7 °C 54.9 °F /  12.7 °C 29.90in /  1012.4hPa South 2.0mph /  3.2km/h 5.0mph /  8km/h 88% 0.00in /  0mm
04:04 58.4 °F /  14.7 °C 54.9 °F /  12.7 °C 29.90in /  1012.4hPa South 2.0mph /  3.2km/h 7.0mph /  11.3km/h 88% 0.00in /  0mm
04:09 58.4 °F /  14.7 °C 54.9 °F /  12.7 °C 29.90in /  1012.4hPa South 3.0mph /  4.8km/h 7.0mph /  11.3km/h 88% 0.00in /  0mm
04:14 58.4 °F /  14.7 °C 54.9 °F /  12.7 °C 29.90in /  1012.4hPa South 3.0mph /  4.8km/h 4.0mph /  6.4km/h 88% 0.00in /  0mm
04:19 58.4 °F /  14.7 °C 54.9 °F /  12.7 °C 29.89in /  1012.1hPa SSE 2.0mph /  3.2km/h 4.0mph /  6.4km/h 88% 0.01in /  0.25mm
04:24 58.4 °F /  14.7 °C 54.9 °F /  12.7 °C 29.89in /  1012.1hPa SSE 2.0mph /  3.2km/h 4.0mph /  6.4km/h 88% 0.01in /  0.25mm
04:29 58.3 °F /  14.6 °C 54.8 °F /  12.7 °C 29.89in /  1012.1hPa SSE 1.0mph /  1.6km/h 4.0mph /  6.4km/h 88% 0.01in /  0.25mm
04:34 58.2 °F /  14.6 °C 54.7 °F /  12.6 °C 29.89in /  1012.1hPa Calm     88% 0.01in /  0.25mm
04:39 58.1 °F /  14.5 °C 54.2 °F /  12.3 °C 29.89in /  1012.1hPa Calm     87% 0.01in /  0.25mm
04:44 58.0 °F /  14.4 °C 54.2 °F /  12.3 °C 29.89in /  1012.1hPa Calm   3.0mph /  4.8km/h 87% 0.01in /  0.25mm
04:49 58.0 °F /  14.4 °C 54.5 °F /  12.5 °C 29.89in /  1012.1hPa SSW 1.0mph /  1.6km/h 4.0mph /  6.4km/h 88% 0.01in /  0.25mm
04:54 58.0 °F /  14.4 °C 54.5 °F /  12.5 °C 29.90in /  1012.4hPa South 2.0mph /  3.2km/h 4.0mph /  6.4km/h 88% 0.01in /  0.25mm
04:59 58.1 °F /  14.5 °C 54.6 °F /  12.6 °C 29.90in /  1012.4hPa SSW 2.0mph /  3.2km/h 4.0mph /  6.4km/h 88% 0.01in /  0.25mm
05:04 58.1 °F /  14.5 °C 54.2 °F /  12.3 °C 29.90in /  1012.4hPa South 2.0mph /  3.2km/h 4.0mph /  6.4km/h 87% 0.01in /  0.25mm
05:09 58.0 °F /  14.4 °C 54.2 °F /  12.3 °C 29.90in /  1012.4hPa South 3.0mph /  4.8km/h 5.0mph /  8km/h 87% 0.01in /  0.25mm
05:14 58.1 °F /  14.5 °C 54.2 °F /  12.3 °C 29.89in /  1012.1hPa South 2.0mph /  3.2km/h 5.0mph /  8km/h 87% 0.01in /  0.25mm
05:19 58.1 °F /  14.5 °C 54.2 °F /  12.3 °C 29.90in /  1012.4hPa SSW 2.0mph /  3.2km/h 5.0mph /  8km/h 87% 0.00in /  0mm
05:24 58.1 °F /  14.5 °C 54.2 °F /  12.3 °C 29.90in /  1012.4hPa SSW 2.0mph /  3.2km/h 5.0mph /  8km/h 87% 0.00in /  0mm
05:29 58.0 °F /  14.4 °C 54.2 °F /  12.3 °C 29.89in /  1012.1hPa SSW 2.0mph /  3.2km/h 5.0mph /  8km/h 87% 0.00in /  0mm
05:34 57.9 °F /  14.4 °C 53.7 °F /  12.1 °C 29.89in /  1012.1hPa Calm   3.0mph /  4.8km/h 86% 0.00in /  0mm
05:39 57.8 °F /  14.3 °C 54.0 °F /  12.2 °C 29.90in /  1012.4hPa Calm     87% 0.00in /  0mm
05:44 57.8 °F /  14.3 °C 54.0 °F /  12.2 °C 29.90in /  1012.4hPa SSE 1.0mph /  1.6km/h 4.0mph /  6.4km/h 87% 0.00in /  0mm
05:49 57.7 °F /  14.3 °C 53.9 °F /  12.2 °C 29.90in /  1012.4hPa South 2.0mph /  3.2km/h 4.0mph /  6.4km/h 87% 0.00in /  0mm
05:54 57.7 °F /  14.3 °C 53.9 °F /  12.2 °C 29.91in /  1012.8hPa SSW 1.0mph /  1.6km/h 4.0mph /  6.4km/h 87% 0.00in /  0mm
05:59 57.7 °F /  14.3 °C 53.9 °F /  12.2 °C 29.91in /  1012.8hPa SSW 2.0mph /  3.2km/h 5.0mph /  8km/h 87% 0.00in /  0mm
06:04 57.8 °F /  14.3 °C 54.0 °F /  12.2 °C 29.91in /  1012.8hPa SSW 2.0mph /  3.2km/h 6.0mph /  9.7km/h 87% 0.00in /  0mm
06:09 58.1 °F /  14.5 °C 54.2 °F /  12.3 °C 29.91in /  1012.8hPa SSW 1.0mph /  1.6km/h 6.0mph /  9.7km/h 87% 0.00in /  0mm
06:14 58.2 °F /  14.6 °C 54.3 °F /  12.4 °C 29.91in /  1012.8hPa SSW 1.0mph /  1.6km/h 3.0mph /  4.8km/h 87% 0.00in /  0mm
06:19 58.4 °F /  14.7 °C 54.2 °F /  12.3 °C 29.91in /  1012.8hPa SSW 1.0mph /  1.6km/h 3.0mph /  4.8km/h 86% 0.00in /  0mm
06:24 58.5 °F /  14.7 °C 54.3 °F /  12.4 °C 29.91in /  1012.8hPa Calm   3.0mph /  4.8km/h 86% 0.00in /  0mm
06:29 58.7 °F /  14.8 °C 54.5 °F /  12.5 °C 29.91in /  1012.8hPa Calm     86% 0.00in /  0mm
06:34 58.8 °F /  14.9 °C 54.6 °F /  12.6 °C 29.91in /  1012.8hPa Calm     86% 0.00in /  0mm
06:39 59.0 °F /  15 °C 55.1 °F /  12.8 °C 29.91in /  1012.8hPa Calm     87% 0.00in /  0mm
06:44 59.1 °F /  15.1 °C 55.2 °F /  12.9 °C 29.92in /  1013.1hPa Calm     87% 0.00in /  0mm
06:49 59.3 °F /  15.2 °C 55.4 °F /  13 °C 29.92in /  1013.1hPa Calm     87% 0.00in /  0mm
06:54 59.4 °F /  15.2 °C 55.5 °F /  13.1 °C 29.92in /  1013.1hPa Calm     87% 0.00in /  0mm
06:59 59.7 °F /  15.4 °C 55.8 °F /  13.2 °C 29.92in /  1013.1hPa Calm     87% 0.00in /  0mm
07:04 60.1 °F /  15.6 °C 56.2 °F /  13.4 °C 29.92in /  1013.1hPa Calm     87% 0.00in /  0mm
07:09 60.5 °F /  15.8 °C 56.3 °F /  13.5 °C 29.91in /  1012.8hPa Calm   2.0mph /  3.2km/h 86% 0.00in /  0mm
07:14 60.9 °F /  16.1 °C 56.0 °F /  13.3 °C 29.92in /  1013.1hPa Calm   2.0mph /  3.2km/h 84% 0.00in /  0mm
07:19 61.3 °F /  16.3 °C 55.8 °F /  13.2 °C 29.92in /  1013.1hPa SSW 1.0mph /  1.6km/h 5.0mph /  8km/h 82% 0.00in /  0mm
07:24 61.4 °F /  16.3 °C 55.9 °F /  13.3 °C 29.92in /  1013.1hPa South 1.0mph /  1.6km/h 3.0mph /  4.8km/h 82% 0.00in /  0mm
07:29 61.3 °F /  16.3 °C 55.4 °F /  13 °C 29.92in /  1013.1hPa South 1.0mph /  1.6km/h 4.0mph /  6.4km/h 81% 0.00in /  0mm
07:34 61.2 °F /  16.2 °C 55.3 °F /  12.9 °C 29.92in /  1013.1hPa South 2.0mph /  3.2km/h 5.0mph /  8km/h 81% 0.00in /  0mm
07:39 61.2 °F /  16.2 °C 55.3 °F /  12.9 °C 29.92in /  1013.1hPa SSW 1.0mph /  1.6km/h 5.0mph /  8km/h 81% 0.00in /  0mm
07:44 61.3 °F /  16.3 °C 55.8 °F /  13.2 °C 29.92in /  1013.1hPa South 1.0mph /  1.6km/h 3.0mph /  4.8km/h 82% 0.00in /  0mm
07:49 61.3 °F /  16.3 °C 55.8 °F /  13.2 °C 29.93in /  1013.4hPa South 2.0mph /  3.2km/h 4.0mph /  6.4km/h 82% 0.00in /  0mm
07:54 61.3 °F /  16.3 °C 55.8 °F /  13.2 °C 29.93in /  1013.4hPa SSW 2.0mph /  3.2km/h 4.0mph /  6.4km/h 82% 0.00in /  0mm
07:59 61.4 °F /  16.3 °C 55.9 °F /  13.3 °C 29.93in /  1013.4hPa SW 3.0mph /  4.8km/h 4.0mph /  6.4km/h 82% 0.00in /  0mm
08:04 61.6 °F /  16.4 °C 56.0 °F /  13.3 °C 29.94in /  1013.8hPa SSW 1.0mph /  1.6km/h 7.0mph /  11.3km/h 82% 0.00in /  0mm
08:09 61.6 °F /  16.4 °C 55.7 °F /  13.2 °C 29.94in /  1013.8hPa SW 2.0mph /  3.2km/h 5.0mph /  8km/h 81% 0.00in /  0mm
08:14 61.6 °F /  16.4 °C 55.7 °F /  13.2 °C 29.94in /  1013.8hPa SW 2.0mph /  3.2km/h 5.0mph /  8km/h 81% 0.00in /  0mm
08:19 61.6 °F /  16.4 °C 56.0 °F /  13.3 °C 29.95in /  1014.1hPa WSW 4.0mph /  6.4km/h 6.0mph /  9.7km/h 82% 0.00in /  0mm
08:24 61.8 °F /  16.6 °C 56.2 °F /  13.4 °C 29.95in /  1014.1hPa SSW 2.0mph /  3.2km/h 8.0mph /  12.9km/h 82% 0.00in /  0mm
08:29 62.4 °F /  16.9 °C 57.2 °F /  14 °C 29.95in /  1014.1hPa SW 4.0mph /  6.4km/h 5.0mph /  8km/h 83% 0.00in /  0mm
08:34 62.8 °F /  17.1 °C 56.5 °F /  13.6 °C 29.94in /  1013.8hPa SW 3.0mph /  4.8km/h 8.0mph /  12.9km/h 80% 0.00in /  0mm
08:39 63.8 °F /  17.7 °C 57.5 °F /  14.2 °C 29.94in /  1013.8hPa SW 3.0mph /  4.8km/h 8.0mph /  12.9km/h 80% 0.00in /  0mm
08:44 64.8 °F /  18.2 °C 58.1 °F /  14.5 °C 29.94in /  1013.8hPa SW 3.0mph /  4.8km/h 7.0mph /  11.3km/h 79% 0.00in /  0mm
08:49 65.6 °F /  18.7 °C 58.2 °F /  14.6 °C 29.95in /  1014.1hPa SW 3.0mph /  4.8km/h 8.0mph /  12.9km/h 77% 0.00in /  0mm
08:54 65.3 °F /  18.5 °C 57.5 °F /  14.2 °C 29.95in /  1014.1hPa SW 5.0mph /  8km/h 10.0mph /  16.1km/h 76% 0.00in /  0mm
08:59 65.3 °F /  18.5 °C 57.2 °F /  14 °C 29.94in /  1013.8hPa SW 8.0mph /  12.9km/h 9.0mph /  14.5km/h 75% 0.00in /  0mm
09:04 64.7 °F /  18.2 °C 56.6 °F /  13.7 °C 29.93in /  1013.4hPa WSW 5.0mph /  8km/h 9.0mph /  14.5km/h 75% 0.00in /  0mm
09:09 64.4 °F /  18 °C 56.7 °F /  13.7 °C 29.93in /  1013.4hPa WSW 5.0mph /  8km/h 10.0mph /  16.1km/h 76% 0.00in /  0mm
09:14 64.9 °F /  18.3 °C 57.9 °F /  14.4 °C 29.94in /  1013.8hPa SW 5.0mph /  8km/h 10.0mph /  16.1km/h 78% 0.00in /  0mm
09:19 65.4 °F /  18.6 °C 57.3 °F /  14.1 °C 29.93in /  1013.4hPa SW 6.0mph /  9.7km/h 10.0mph /  16.1km/h 75% 0.00in /  0mm
09:24 65.8 °F /  18.8 °C 57.7 °F /  14.3 °C 29.94in /  1013.8hPa SW 3.0mph /  4.8km/h 7.0mph /  11.3km/h 75% 0.00in /  0mm
09:29 65.6 °F /  18.7 °C 56.3 °F /  13.5 °C 29.94in /  1013.8hPa WSW 4.0mph /  6.4km/h 10.0mph /  16.1km/h 72% 0.00in /  0mm
09:34 65.6 °F /  18.7 °C 57.1 °F /  13.9 °C 29.94in /  1013.8hPa SW 4.0mph /  6.4km/h 10.0mph /  16.1km/h 74% 0.00in /  0mm
09:39 65.3 °F /  18.5 °C 56.8 °F /  13.8 °C 29.93in /  1013.4hPa SW 3.0mph /  4.8km/h 7.0mph /  11.3km/h 74% 0.00in /  0mm
09:44 65.8 °F /  18.8 °C 57.7 °F /  14.3 °C 29.94in /  1013.8hPa SW 4.0mph /  6.4km/h 7.0mph /  11.3km/h 75% 0.00in /  0mm
09:49 65.8 °F /  18.8 °C 56.5 °F /  13.6 °C 29.93in /  1013.4hPa SW 3.0mph /  4.8km/h 9.0mph /  14.5km/h 72% 0.00in /  0mm
09:54 65.7 °F /  18.7 °C 56.0 °F /  13.3 °C 29.93in /  1013.4hPa SW 3.0mph /  4.8km/h 8.0mph /  12.9km/h 71% 0.00in /  0mm
09:59 66.3 °F /  19.1 °C 58.1 °F /  14.5 °C 29.93in /  1013.4hPa SW 4.0mph /  6.4km/h 7.0mph /  11.3km/h 75% 0.00in /  0mm
10:04 66.7 °F /  19.3 °C 56.2 °F /  13.4 °C 29.93in /  1013.4hPa SSW 3.0mph /  4.8km/h 7.0mph /  11.3km/h 69% 0.00in /  0mm
10:09 67.0 °F /  19.4 °C 56.5 °F /  13.6 °C 29.93in /  1013.4hPa SW 4.0mph /  6.4km/h 9.0mph /  14.5km/h 69% 0.00in /  0mm
10:14 67.7 °F /  19.8 °C 56.3 °F /  13.5 °C 29.93in /  1013.4hPa SSW 4.0mph /  6.4km/h 9.0mph /  14.5km/h 67% 0.00in /  0mm
10:19 68.1 °F /  20.1 °C 56.7 °F /  13.7 °C 29.93in /  1013.4hPa SW 4.0mph /  6.4km/h 8.0mph /  12.9km/h 67% 0.00in /  0mm
10:24 68.6 °F /  20.3 °C 56.4 °F /  13.6 °C 29.93in /  1013.4hPa SW 4.0mph /  6.4km/h 9.0mph /  14.5km/h 65% 0.00in /  0mm
10:29 68.7 °F /  20.4 °C 56.9 °F /  13.8 °C 29.93in /  1013.4hPa SW 4.0mph /  6.4km/h 11.0mph /  17.7km/h 66% 0.00in /  0mm
10:34 68.5 °F /  20.3 °C 55.4 °F /  13 °C 29.92in /  1013.1hPa SW 5.0mph /  8km/h 11.0mph /  17.7km/h 63% 0.00in /  0mm
10:39 69.0 °F /  20.6 °C 55.4 °F /  13 °C 29.92in /  1013.1hPa SW 8.0mph /  12.9km/h 11.0mph /  17.7km/h 62% 0.00in /  0mm
10:44 68.3 °F /  20.2 °C 55.6 °F /  13.1 °C 29.93in /  1013.4hPa SW 3.0mph /  4.8km/h 9.0mph /  14.5km/h 64% 0.00in /  0mm
10:49 68.7 °F /  20.4 °C 54.7 °F /  12.6 °C 29.93in /  1013.4hPa West 6.0mph /  9.7km/h 11.0mph /  17.7km/h 61% 0.00in /  0mm
10:54 68.7 °F /  20.4 °C 56.0 °F /  13.3 °C 29.93in /  1013.4hPa WNW 5.0mph /  8km/h 9.0mph /  14.5km/h 64% 0.00in /  0mm
10:59 68.4 °F /  20.2 °C 56.6 °F /  13.7 °C 29.93in /  1013.4hPa WSW 5.0mph /  8km/h 10.0mph /  16.1km/h 66% 0.00in /  0mm
11:04 68.6 °F /  20.3 °C 55.5 °F /  13.1 °C 29.93in /  1013.4hPa WSW 5.0mph /  8km/h 10.0mph /  16.1km/h 63% 0.00in /  0mm
11:09 68.7 °F /  20.4 °C 54.7 °F /  12.6 °C 29.93in /  1013.4hPa WSW 5.0mph /  8km/h 12.0mph /  19.3km/h 61% 0.00in /  0mm
11:14 68.6 °F /  20.3 °C 54.6 °F /  12.6 °C 29.93in /  1013.4hPa WSW 6.0mph /  9.7km/h 12.0mph /  19.3km/h 61% 0.00in /  0mm
11:19 68.6 °F /  20.3 °C 55.9 °F /  13.3 °C 29.94in /  1013.8hPa SW 6.0mph /  9.7km/h 11.0mph /  17.7km/h 64% 0.00in /  0mm
11:24 68.3 °F /  20.2 °C 54.8 °F /  12.7 °C 29.94in /  1013.8hPa West 7.0mph /  11.3km/h 10.0mph /  16.1km/h 62% 0.00in /  0mm
11:29 68.7 °F /  20.4 °C 54.3 °F /  12.4 °C 29.94in /  1013.8hPa WSW 3.0mph /  4.8km/h 10.0mph /  16.1km/h 60% 0.00in /  0mm
11:34 68.5 °F /  20.3 °C 55.0 °F /  12.8 °C 29.94in /  1013.8hPa WSW 5.0mph /  8km/h 11.0mph /  17.7km/h 62% 0.00in /  0mm
11:39 68.1 °F /  20.1 °C 53.7 °F /  12.1 °C 29.94in /  1013.8hPa SW 5.0mph /  8km/h 11.0mph /  17.7km/h 60% 0.00in /  0mm
11:44 68.0 °F /  20 °C 54.0 °F /  12.2 °C 29.94in /  1013.8hPa West 6.0mph /  9.7km/h 10.0mph /  16.1km/h 61% 0.00in /  0mm
11:49 67.8 °F /  19.9 °C 54.3 °F /  12.4 °C 29.94in /  1013.8hPa WSW 1.0mph /  1.6km/h 13.0mph /  20.9km/h 62% 0.00in /  0mm
11:54 67.9 °F /  19.9 °C 54.4 °F /  12.4 °C 29.94in /  1013.8hPa WSW 2.0mph /  3.2km/h 9.0mph /  14.5km/h 62% 0.00in /  0mm
11:59 68.8 °F /  20.4 °C 55.2 °F /  12.9 °C 29.94in /  1013.8hPa West 5.0mph /  8km/h 8.0mph /  12.9km/h 62% 0.00in /  0mm
12:04 68.6 °F /  20.3 °C 54.6 °F /  12.6 °C 29.93in /  1013.4hPa West 5.0mph /  8km/h 10.0mph /  16.1km/h 61% 0.00in /  0mm
12:09 68.4 °F /  20.2 °C 54.4 °F /  12.4 °C 29.94in /  1013.8hPa WSW 5.0mph /  8km/h 10.0mph /  16.1km/h 61% 0.00in /  0mm
12:14 68.3 °F /  20.2 °C 53.4 °F /  11.9 °C 29.94in /  1013.8hPa SW 5.0mph /  8km/h 10.0mph /  16.1km/h 59% 0.00in /  0mm
12:19 68.3 °F /  20.2 °C 54.3 °F /  12.4 °C 29.93in /  1013.4hPa WSW 6.0mph /  9.7km/h 9.0mph /  14.5km/h 61% 0.00in /  0mm
12:24 68.5 °F /  20.3 °C 54.5 °F /  12.5 °C 29.93in /  1013.4hPa NW 5.0mph /  8km/h 9.0mph /  14.5km/h 61% 0.00in /  0mm
12:29 69.1 °F /  20.6 °C 55.5 °F /  13.1 °C 29.93in /  1013.4hPa West 2.0mph /  3.2km/h 8.0mph /  12.9km/h 62% 0.00in /  0mm
12:34 68.7 °F /  20.4 °C 54.7 °F /  12.6 °C 29.93in /  1013.4hPa WSW 4.0mph /  6.4km/h 10.0mph /  16.1km/h 61% 0.00in /  0mm
12:39 69.3 °F /  20.7 °C 56.6 °F /  13.7 °C 29.93in /  1013.4hPa WSW 5.0mph /  8km/h 10.0mph /  16.1km/h 64% 0.00in /  0mm
12:44 70.5 °F /  21.4 °C 55.0 °F /  12.8 °C 29.93in /  1013.4hPa WSW 5.0mph /  8km/h 11.0mph /  17.7km/h 58% 0.00in /  0mm
12:49 70.1 °F /  21.2 °C 54.6 °F /  12.6 °C 29.93in /  1013.4hPa SW 5.0mph /  8km/h 11.0mph /  17.7km/h 58% 0.00in /  0mm
12:54 70.8 °F /  21.6 °C 55.3 °F /  12.9 °C 29.93in /  1013.4hPa SW 4.0mph /  6.4km/h 9.0mph /  14.5km/h 58% 0.00in /  0mm
12:59 71.2 °F /  21.8 °C 54.2 °F /  12.3 °C 29.92in /  1013.1hPa WSW 4.0mph /  6.4km/h 10.0mph /  16.1km/h 55% 0.00in /  0mm
13:04 71.4 °F /  21.9 °C 52.9 °F /  11.6 °C 29.92in /  1013.1hPa SW 5.0mph /  8km/h 8.0mph /  12.9km/h 52% 0.00in /  0mm
13:09 71.9 °F /  22.2 °C 54.9 °F /  12.7 °C 29.92in /  1013.1hPa SSW 5.0mph /  8km/h 8.0mph /  12.9km/h 55% 0.00in /  0mm
13:14 72.1 °F /  22.3 °C 53.0 °F /  11.7 °C 29.92in /  1013.1hPa SW 5.0mph /  8km/h 11.0mph /  17.7km/h 51% 0.00in /  0mm
13:19 72.5 °F /  22.5 °C 55.4 °F /  13 °C 29.91in /  1012.8hPa South 4.0mph /  6.4km/h 10.0mph /  16.1km/h 55% 0.00in /  0mm
13:24 72.9 °F /  22.7 °C 52.1 °F /  11.2 °C 29.91in /  1012.8hPa WNW 2.0mph /  3.2km/h 8.0mph /  12.9km/h 48% 0.00in /  0mm
13:29 73.4 °F /  23 °C 54.2 °F /  12.3 °C 29.90in /  1012.4hPa West 5.0mph /  8km/h 7.0mph /  11.3km/h 51% 0.00in /  0mm
13:34 73.3 °F /  22.9 °C 51.8 °F /  11 °C 29.90in /  1012.4hPa WSW 4.0mph /  6.4km/h 11.0mph /  17.7km/h 47% 0.00in /  0mm
13:39 73.7 °F /  23.2 °C 52.2 °F /  11.2 °C 29.90in /  1012.4hPa West 6.0mph /  9.7km/h 14.0mph /  22.5km/h 47% 0.00in /  0mm
13:44 73.6 °F /  23.1 °C 50.3 °F /  10.2 °C 29.90in /  1012.4hPa WSW 6.0mph /  9.7km/h 14.0mph /  22.5km/h 44% 0.00in /  0mm
13:49 73.4 °F /  23 °C 51.4 °F /  10.8 °C 29.90in /  1012.4hPa WSW 6.0mph /  9.7km/h 14.0mph /  22.5km/h 46% 0.00in /  0mm
13:54 73.6 °F /  23.1 °C 49.7 °F /  9.8 °C 29.90in /  1012.4hPa WSW 6.0mph /  9.7km/h 14.0mph /  22.5km/h 43% 0.00in /  0mm
13:59 73.8 °F /  23.2 °C 51.7 °F /  10.9 °C 29.90in /  1012.4hPa WSW 6.0mph /  9.7km/h 14.0mph /  22.5km/h 46% 0.00in /  0mm
14:04 73.9 °F /  23.3 °C 52.4 °F /  11.3 °C 29.90in /  1012.4hPa WSW 6.0mph /  9.7km/h 14.0mph /  22.5km/h 47% 0.00in /  0mm
14:09 73.7 °F /  23.2 °C 53.3 °F /  11.8 °C 29.89in /  1012.1hPa WSW 7.0mph /  11.3km/h 14.0mph /  22.5km/h 49% 0.00in /  0mm
14:14 73.9 °F /  23.3 °C 51.2 °F /  10.7 °C 29.89in /  1012.1hPa NW 4.0mph /  6.4km/h 12.0mph /  19.3km/h 45% 0.00in /  0mm
14:19 73.9 °F /  23.3 °C 52.4 °F /  11.3 °C 29.88in /  1011.7hPa West 6.0mph /  9.7km/h 11.0mph /  17.7km/h 47% 0.00in /  0mm
14:24 74.2 °F /  23.4 °C 50.9 °F /  10.5 °C 29.88in /  1011.7hPa SW 10.0mph /  16.1km/h 16.0mph /  25.7km/h 44% 0.00in /  0mm
14:29 74.0 °F /  23.3 °C 50.7 °F /  10.4 °C 29.88in /  1011.7hPa SSW 4.0mph /  6.4km/h 12.0mph /  19.3km/h 44% 0.00in /  0mm
14:34 73.9 °F /  23.3 °C 48.7 °F /  9.3 °C 29.88in /  1011.7hPa WSW 7.0mph /  11.3km/h 14.0mph /  22.5km/h 41% 0.00in /  0mm
14:39 73.8 °F /  23.2 °C 50.5 °F /  10.3 °C 29.88in /  1011.7hPa WSW 7.0mph /  11.3km/h 14.0mph /  22.5km/h 44% 0.00in /  0mm
14:44 74.5 °F /  23.6 °C 52.4 °F /  11.3 °C 29.88in /  1011.7hPa WSW 6.0mph /  9.7km/h 13.0mph /  20.9km/h 46% 0.00in /  0mm
14:49 74.1 °F /  23.4 °C 49.5 °F /  9.7 °C 29.88in /  1011.7hPa WSW 11.0mph /  17.7km/h 12.0mph /  19.3km/h 42% 0.00in /  0mm
14:54 74.2 °F /  23.4 °C 53.8 °F /  12.1 °C 29.88in /  1011.7hPa SW 7.0mph /  11.3km/h 11.0mph /  17.7km/h 49% 0.00in /  0mm
14:59 74.6 °F /  23.7 °C 50.6 °F /  10.3 °C 29.88in /  1011.7hPa SW 6.0mph /  9.7km/h 12.0mph /  19.3km/h 43% 0.00in /  0mm
15:04 74.4 °F /  23.6 °C 51.7 °F /  10.9 °C 29.88in /  1011.7hPa West 6.0mph /  9.7km/h 15.0mph /  24.1km/h 45% 0.00in /  0mm
15:09 74.1 °F /  23.4 °C 51.4 °F /  10.8 °C 29.88in /  1011.7hPa WSW 7.0mph /  11.3km/h 15.0mph /  24.1km/h 45% 0.00in /  0mm
15:14 74.3 °F /  23.5 °C 51.6 °F /  10.9 °C 29.88in /  1011.7hPa WSW 7.0mph /  11.3km/h 14.0mph /  22.5km/h 45% 0.00in /  0mm
15:19 74.0 °F /  23.3 °C 50.1 °F /  10.1 °C 29.88in /  1011.7hPa SW 8.0mph /  12.9km/h 16.0mph /  25.7km/h 43% 0.00in /  0mm
15:24 72.9 °F /  22.7 °C 49.7 °F /  9.8 °C 29.88in /  1011.7hPa SW 9.0mph /  14.5km/h 16.0mph /  25.7km/h 44% 0.00in /  0mm
15:29 72.1 °F /  22.3 °C 50.2 °F /  10.1 °C 29.88in /  1011.7hPa SW 7.0mph /  11.3km/h 12.0mph /  19.3km/h 46% 0.00in /  0mm
15:34 71.8 °F /  22.1 °C 51.0 °F /  10.6 °C 29.88in /  1011.7hPa WSW 7.0mph /  11.3km/h 13.0mph /  20.9km/h 48% 0.00in /  0mm
15:39 72.4 °F /  22.4 °C 49.9 °F /  9.9 °C 29.88in /  1011.7hPa WSW 7.0mph /  11.3km/h 18.0mph /  29km/h 45% 0.00in /  0mm
15:44 72.5 °F /  22.5 °C 49.9 °F /  9.9 °C 29.88in /  1011.7hPa WSW 7.0mph /  11.3km/h 18.0mph /  29km/h 45% 0.00in /  0mm
15:49 72.6 °F /  22.6 °C 52.9 °F /  11.6 °C 29.88in /  1011.7hPa WSW 7.0mph /  11.3km/h 14.0mph /  22.5km/h 50% 0.00in /  0mm
15:54 73.6 °F /  23.1 °C 52.1 °F /  11.2 °C 29.88in /  1011.7hPa WSW 6.0mph /  9.7km/h 15.0mph /  24.1km/h 47% 0.00in /  0mm
15:59 73.3 °F /  22.9 °C 51.3 °F /  10.7 °C 29.88in /  1011.7hPa WSW 7.0mph /  11.3km/h 15.0mph /  24.1km/h 46% 0.00in /  0mm
16:04 72.7 °F /  22.6 °C 50.1 °F /  10.1 °C 29.88in /  1011.7hPa WSW 7.0mph /  11.3km/h 15.0mph /  24.1km/h 45% 0.00in /  0mm
16:09 72.6 °F /  22.6 °C 51.2 °F /  10.7 °C 29.88in /  1011.7hPa WSW 8.0mph /  12.9km/h 14.0mph /  22.5km/h 47% 0.00in /  0mm
16:14 73.3 °F /  22.9 °C 52.4 °F /  11.3 °C 29.89in /  1012.1hPa West 8.0mph /  12.9km/h 15.0mph /  24.1km/h 48% 0.00in /  0mm
16:19 73.0 °F /  22.8 °C 50.4 °F /  10.2 °C 29.89in /  1012.1hPa SW 14.0mph /  22.5km/h 17.0mph /  27.4km/h 45% 0.00in /  0mm
16:24 72.9 °F /  22.7 °C 52.1 °F /  11.2 °C 29.89in /  1012.1hPa WSW 7.0mph /  11.3km/h 14.0mph /  22.5km/h 48% 0.00in /  0mm
16:29 72.3 °F /  22.4 °C 50.4 °F /  10.2 °C 29.89in /  1012.1hPa SW 7.0mph /  11.3km/h 16.0mph /  25.7km/h 46% 0.00in /  0mm
16:34 72.4 °F /  22.4 °C 51.6 °F /  10.9 °C 29.89in /  1012.1hPa WSW 5.0mph /  8km/h 19.0mph /  30.6km/h 48% 0.00in /  0mm
16:39 72.7 °F /  22.6 °C 50.7 °F /  10.4 °C 29.89in /  1012.1hPa WNW 5.0mph /  8km/h 15.0mph /  24.1km/h 46% 0.00in /  0mm
16:49 72.7 °F /  22.6 °C 51.3 °F /  10.7 °C 29.89in /  1012.1hPa WSW 6.0mph /  9.7km/h 17.0mph /  27.4km/h 47% 0.00in /  0mm
16:54 72.1 °F /  22.3 °C 51.3 °F /  10.7 °C 29.89in /  1012.1hPa WSW 8.0mph /  12.9km/h 17.0mph /  27.4km/h 48% 0.00in /  0mm
17:04 72.5 °F /  22.5 °C 52.8 °F /  11.6 °C 29.89in /  1012.1hPa West 7.0mph /  11.3km/h 18.0mph /  29km/h 50% 0.00in /  0mm
17:09 72.3 °F /  22.4 °C 50.9 °F /  10.5 °C 29.89in /  1012.1hPa SW 11.0mph /  17.7km/h 14.0mph /  22.5km/h 47% 0.00in /  0mm
17:14 71.6 °F /  22 °C 50.3 °F /  10.2 °C 29.89in /  1012.1hPa WSW 8.0mph /  12.9km/h 15.0mph /  24.1km/h 47% 0.00in /  0mm
17:19 70.6 °F /  21.4 °C 51.1 °F /  10.6 °C 29.89in /  1012.1hPa WSW 9.0mph /  14.5km/h 16.0mph /  25.7km/h 50% 0.00in /  0mm
17:24 70.7 °F /  21.5 °C 52.2 °F /  11.2 °C 29.90in /  1012.4hPa SW 11.0mph /  17.7km/h 13.0mph /  20.9km/h 52% 0.00in /  0mm
17:34 70.1 °F /  21.2 °C 50.6 °F /  10.3 °C 29.89in /  1012.1hPa WSW 9.0mph /  14.5km/h 10.0mph /  16.1km/h 50% 0.00in /  0mm
17:39 70.1 °F /  21.2 °C 51.7 °F /  10.9 °C 29.90in /  1012.4hPa WSW 7.0mph /  11.3km/h 12.0mph /  19.3km/h 52% 0.00in /  0mm
17:44 70.6 °F /  21.4 °C 51.1 °F /  10.6 °C 29.90in /  1012.4hPa WSW 6.0mph /  9.7km/h 13.0mph /  20.9km/h 50% 0.00in /  0mm
17:49 70.7 °F /  21.5 °C 51.1 °F /  10.6 °C 29.90in /  1012.4hPa WSW 7.0mph /  11.3km/h 15.0mph /  24.1km/h 50% 0.00in /  0mm
17:54 70.9 °F /  21.6 °C 50.8 °F /  10.4 °C 29.89in /  1012.1hPa WSW 7.0mph /  11.3km/h 15.0mph /  24.1km/h 49% 0.00in /  0mm
17:59 71.1 °F /  21.7 °C 48.1 °F /  8.9 °C 29.89in /  1012.1hPa SSW 13.0mph /  20.9km/h 17.0mph /  27.4km/h 44% 0.00in /  0mm
18:04 71.0 °F /  21.7 °C 49.2 °F /  9.6 °C 29.89in /  1012.1hPa West 8.0mph /  12.9km/h 13.0mph /  20.9km/h 46% 0.00in /  0mm
18:09 70.5 °F /  21.4 °C 49.9 °F /  9.9 °C 29.90in /  1012.4hPa WSW 6.0mph /  9.7km/h 13.0mph /  20.9km/h 48% 0.00in /  0mm
18:14 70.5 °F /  21.4 °C 51.0 °F /  10.6 °C 29.90in /  1012.4hPa WSW 6.0mph /  9.7km/h 14.0mph /  22.5km/h 50% 0.00in /  0mm
18:19 70.3 °F /  21.3 °C 51.3 °F /  10.7 °C 29.90in /  1012.4hPa SW 7.0mph /  11.3km/h 14.0mph /  22.5km/h 51% 0.00in /  0mm
18:24 69.7 °F /  20.9 °C 51.3 °F /  10.7 °C 29.90in /  1012.4hPa WSW 7.0mph /  11.3km/h 13.0mph /  20.9km/h 52% 0.00in /  0mm
18:29 69.4 °F /  20.8 °C 50.5 °F /  10.3 °C 29.89in /  1012.1hPa WSW 8.0mph /  12.9km/h 15.0mph /  24.1km/h 51% 0.00in /  0mm
18:34 69.1 °F /  20.6 °C 50.2 °F /  10.1 °C 29.90in /  1012.4hPa SW 9.0mph /  14.5km/h 18.0mph /  29km/h 51% 0.00in /  0mm
18:39 69.0 °F /  20.6 °C 50.6 °F /  10.3 °C 29.90in /  1012.4hPa WSW 6.0mph /  9.7km/h 16.0mph /  25.7km/h 52% 0.00in /  0mm
18:44 69.0 °F /  20.6 °C 50.6 °F /  10.3 °C 29.90in /  1012.4hPa WSW 6.0mph /  9.7km/h 13.0mph /  20.9km/h 52% 0.00in /  0mm
18:49 68.9 °F /  20.5 °C 50.0 °F /  10 °C 29.89in /  1012.1hPa WSW 13.0mph /  20.9km/h 16.0mph /  25.7km/h 51% 0.00in /  0mm
18:54 68.5 °F /  20.3 °C 50.2 °F /  10.1 °C 29.90in /  1012.4hPa WSW 9.0mph /  14.5km/h 13.0mph /  20.9km/h 52% 0.00in /  0mm
18:59 68.2 °F /  20.1 °C 50.4 °F /  10.2 °C 29.90in /  1012.4hPa SW 4.0mph /  6.4km/h 14.0mph /  22.5km/h 53% 0.00in /  0mm
19:04 68.0 °F /  20 °C 50.2 °F /  10.1 °C 29.90in /  1012.4hPa WSW 11.0mph /  17.7km/h 14.0mph /  22.5km/h 53% 0.00in /  0mm
19:09 67.7 °F /  19.8 °C 50.5 °F /  10.3 °C 29.90in /  1012.4hPa WSW 8.0mph /  12.9km/h 14.0mph /  22.5km/h 54% 0.00in /  0mm
19:14 67.5 °F /  19.7 °C 50.8 °F /  10.4 °C 29.90in /  1012.4hPa WSW 8.0mph /  12.9km/h 14.0mph /  22.5km/h 55% 0.00in /  0mm
19:19 67.5 °F /  19.7 °C 50.8 °F /  10.4 °C 29.90in /  1012.4hPa WSW 6.0mph /  9.7km/h 14.0mph /  22.5km/h 55% 0.00in /  0mm
19:24 67.5 °F /  19.7 °C 50.8 °F /  10.4 °C 29.90in /  1012.4hPa WSW 6.0mph /  9.7km/h 15.0mph /  24.1km/h 55% 0.00in /  0mm
19:29 67.1 °F /  19.5 °C 49.9 °F /  9.9 °C 29.91in /  1012.8hPa WSW 8.0mph /  12.9km/h 16.0mph /  25.7km/h 54% 0.00in /  0mm
19:34 66.9 °F /  19.4 °C 50.2 °F /  10.1 °C 29.90in /  1012.4hPa WSW 8.0mph /  12.9km/h 16.0mph /  25.7km/h 55% 0.00in /  0mm
19:39 66.9 °F /  19.4 °C 51.2 °F /  10.7 °C 29.91in /  1012.8hPa WSW 6.0mph /  9.7km/h 13.0mph /  20.9km/h 57% 0.00in /  0mm
19:44 66.6 °F /  19.2 °C 50.9 °F /  10.5 °C 29.91in /  1012.8hPa WSW 3.0mph /  4.8km/h 14.0mph /  22.5km/h 57% 0.00in /  0mm
19:49 66.4 °F /  19.1 °C 50.7 °F /  10.4 °C 29.91in /  1012.8hPa West 2.0mph /  3.2km/h 11.0mph /  17.7km/h 57% 0.00in /  0mm
19:54 66.3 °F /  19.1 °C 50.6 °F /  10.3 °C 29.91in /  1012.8hPa SW 8.0mph /  12.9km/h 11.0mph /  17.7km/h 57% 0.00in /  0mm
19:59 66.1 °F /  18.9 °C 50.4 °F /  10.2 °C 29.91in /  1012.8hPa WSW 9.0mph /  14.5km/h 17.0mph /  27.4km/h 57% 0.00in /  0mm
20:04 65.8 °F /  18.8 °C 50.6 °F /  10.3 °C 29.91in /  1012.8hPa SW 5.0mph /  8km/h 11.0mph /  17.7km/h 58% 0.00in /  0mm
20:09 65.4 °F /  18.6 °C 50.2 °F /  10.1 °C 29.91in /  1012.8hPa SW 6.0mph /  9.7km/h 15.0mph /  24.1km/h 58% 0.00in /  0mm
20:14 65.2 °F /  18.4 °C 50.5 °F /  10.3 °C 29.91in /  1012.8hPa SW 6.0mph /  9.7km/h 15.0mph /  24.1km/h 59% 0.00in /  0mm
20:19 65.1 °F /  18.4 °C 50.4 °F /  10.2 °C 29.91in /  1012.8hPa SW 6.0mph /  9.7km/h 12.0mph /  19.3km/h 59% 0.00in /  0mm
20:24 64.9 °F /  18.3 °C 50.7 °F /  10.4 °C 29.91in /  1012.8hPa SW 6.0mph /  9.7km/h 12.0mph /  19.3km/h 60% 0.00in /  0mm
20:29 64.7 °F /  18.2 °C 50.9 °F /  10.5 °C 29.91in /  1012.8hPa SW 6.0mph /  9.7km/h 13.0mph /  20.9km/h 61% 0.00in /  0mm
20:34 64.5 °F /  18.1 °C 50.7 °F /  10.4 °C 29.90in /  1012.4hPa WSW 4.0mph /  6.4km/h 13.0mph /  20.9km/h 61% 0.00in /  0mm
20:39 64.5 °F /  18.1 °C 50.7 °F /  10.4 °C 29.90in /  1012.4hPa SW 7.0mph /  11.3km/h 15.0mph /  24.1km/h 61% 0.00in /  0mm
20:44 64.3 °F /  17.9 °C 50.6 °F /  10.3 °C 29.91in /  1012.8hPa SW 6.0mph /  9.7km/h 15.0mph /  24.1km/h 61% 0.00in /  0mm
20:49 64.3 °F /  17.9 °C 50.6 °F /  10.3 °C 29.90in /  1012.4hPa WSW 7.0mph /  11.3km/h 10.0mph /  16.1km/h 61% 0.00in /  0mm
20:54 64.3 °F /  17.9 °C 50.1 °F /  10.1 °C 29.90in /  1012.4hPa SW 3.0mph /  4.8km/h 8.0mph /  12.9km/h 60% 0.00in /  0mm
20:59 64.4 °F /  18 °C 50.2 °F /  10.1 °C 29.90in /  1012.4hPa SSW 3.0mph /  4.8km/h 8.0mph /  12.9km/h 60% 0.00in /  0mm
21:04 64.6 °F /  18.1 °C 49.9 °F /  9.9 °C 29.90in /  1012.4hPa South 6.0mph /  9.7km/h 11.0mph /  17.7km/h 59% 0.00in /  0mm
21:09 64.7 °F /  18.2 °C 50.0 °F /  10 °C 29.90in /  1012.4hPa SW 6.0mph /  9.7km/h 12.0mph /  19.3km/h 59% 0.00in /  0mm
21:14 64.6 °F /  18.1 °C 49.9 °F /  9.9 °C 29.90in /  1012.4hPa SW 6.0mph /  9.7km/h 12.0mph /  19.3km/h 59% 0.00in /  0mm
21:19 64.5 °F /  18.1 °C 49.8 °F /  9.9 °C 29.90in /  1012.4hPa SW 5.0mph /  8km/h 12.0mph /  19.3km/h 59% 0.00in /  0mm
21:24 64.5 °F /  18.1 °C 48.9 °F /  9.4 °C 29.91in /  1012.8hPa SW 6.0mph /  9.7km/h 11.0mph /  17.7km/h 57% 0.00in /  0mm
21:29 64.7 °F /  18.2 °C 48.6 °F /  9.2 °C 29.91in /  1012.8hPa WSW 3.0mph /  4.8km/h 12.0mph /  19.3km/h 56% 0.00in /  0mm
21:34 64.7 °F /  18.2 °C 48.6 °F /  9.2 °C 29.91in /  1012.8hPa SSW 7.0mph /  11.3km/h 11.0mph /  17.7km/h 56% 0.00in /  0mm
21:39 64.8 °F /  18.2 °C 48.2 °F /  9 °C 29.91in /  1012.8hPa WSW 5.0mph /  8km/h 9.0mph /  14.5km/h 55% 0.00in /  0mm
21:44 64.8 °F /  18.2 °C 47.8 °F /  8.8 °C 29.91in /  1012.8hPa SW 5.0mph /  8km/h 11.0mph /  17.7km/h 54% 0.00in /  0mm
21:49 64.9 °F /  18.3 °C 47.9 °F /  8.8 °C 29.91in /  1012.8hPa SW 7.0mph /  11.3km/h 13.0mph /  20.9km/h 54% 0.00in /  0mm
21:54 65.0 °F /  18.3 °C 47.4 °F /  8.6 °C 29.91in /  1012.8hPa WSW 3.0mph /  4.8km/h 9.0mph /  14.5km/h 53% 0.00in /  0mm
21:59 65.0 °F /  18.3 °C 47.4 °F /  8.6 °C 29.91in /  1012.8hPa WSW 8.0mph /  12.9km/h 9.0mph /  14.5km/h 53% 0.00in /  0mm
22:04 65.0 °F /  18.3 °C 47.4 °F /  8.6 °C 29.91in /  1012.8hPa SSW 3.0mph /  4.8km/h 8.0mph /  12.9km/h 53% 0.00in /  0mm
22:09 64.9 °F /  18.3 °C 47.4 °F /  8.6 °C 29.91in /  1012.8hPa South 2.0mph /  3.2km/h 9.0mph /  14.5km/h 53% 0.00in /  0mm
22:14 64.9 °F /  18.3 °C 46.8 °F /  8.2 °C 29.91in /  1012.8hPa SW 4.0mph /  6.4km/h 10.0mph /  16.1km/h 52% 0.00in /  0mm
22:19 65.0 °F /  18.3 °C 47.4 °F /  8.6 °C 29.91in /  1012.8hPa SW 4.0mph /  6.4km/h 10.0mph /  16.1km/h 53% 0.00in /  0mm
22:24 65.1 °F /  18.4 °C 47.0 °F /  8.3 °C 29.91in /  1012.8hPa SW 4.0mph /  6.4km/h 9.0mph /  14.5km/h 52% 0.00in /  0mm
22:29 65.2 °F /  18.4 °C 47.1 °F /  8.4 °C 29.91in /  1012.8hPa SW 4.0mph /  6.4km/h 9.0mph /  14.5km/h 52% 0.00in /  0mm
22:34 65.0 °F /  18.3 °C 47.4 °F /  8.6 °C 29.92in /  1013.1hPa SW 4.0mph /  6.4km/h 9.0mph /  14.5km/h 53% 0.00in /  0mm
22:39 64.7 °F /  18.2 °C 47.2 °F /  8.4 °C 29.91in /  1012.8hPa SSW 3.0mph /  4.8km/h 9.0mph /  14.5km/h 53% 0.00in /  0mm
22:44 64.6 °F /  18.1 °C 47.6 °F /  8.7 °C 29.91in /  1012.8hPa SW 4.0mph /  6.4km/h 9.0mph /  14.5km/h 54% 0.00in /  0mm
22:49 64.4 °F /  18 °C 47.4 °F /  8.6 °C 29.91in /  1012.8hPa WSW 3.0mph /  4.8km/h 9.0mph /  14.5km/h 54% 0.00in /  0mm
22:54 64.6 °F /  18.1 °C 47.1 °F /  8.4 °C 29.91in /  1012.8hPa SW 4.0mph /  6.4km/h 12.0mph /  19.3km/h 53% 0.00in /  0mm
22:59 64.5 °F /  18.1 °C 47.0 °F /  8.3 °C 29.91in /  1012.8hPa SW 2.0mph /  3.2km/h 8.0mph /  12.9km/h 53% 0.00in /  0mm
23:04 64.5 °F /  18.1 °C 47.0 °F /  8.3 °C 29.91in /  1012.8hPa SW 4.0mph /  6.4km/h 9.0mph /  14.5km/h 53% 0.00in /  0mm
23:09 64.7 °F /  18.2 °C 46.7 °F /  8.2 °C 29.91in /  1012.8hPa SW 2.0mph /  3.2km/h 9.0mph /  14.5km/h 52% 0.00in /  0mm
23:14 64.9 °F /  18.3 °C 46.8 °F /  8.2 °C 29.91in /  1012.8hPa SW 4.0mph /  6.4km/h 12.0mph /  19.3km/h 52% 0.00in /  0mm
23:19 64.8 °F /  18.2 °C 46.8 °F /  8.2 °C 29.91in /  1012.8hPa SW 4.0mph /  6.4km/h 12.0mph /  19.3km/h 52% 0.00in /  0mm
23:24 64.6 °F /  18.1 °C 47.1 °F /  8.4 °C 29.91in /  1012.8hPa SW 4.0mph /  6.4km/h 11.0mph /  17.7km/h 53% 0.00in /  0mm
23:29 64.4 °F /  18 °C 46.9 °F /  8.3 °C 29.91in /  1012.8hPa SSW 5.0mph /  8km/h 8.0mph /  12.9km/h 53% 0.00in /  0mm
23:34 64.3 °F /  17.9 °C 46.8 °F /  8.2 °C 29.91in /  1012.8hPa SSW 2.0mph /  3.2km/h 7.0mph /  11.3km/h 53% 0.00in /  0mm
23:39 64.0 °F /  17.8 °C 47.0 °F /  8.3 °C 29.91in /  1012.8hPa SSW 3.0mph /  4.8km/h 7.0mph /  11.3km/h 54% 0.00in /  0mm
23:44 63.8 °F /  17.7 °C 47.3 °F /  8.5 °C 29.91in /  1012.8hPa SSW 3.0mph /  4.8km/h 7.0mph /  11.3km/h 55% 0.00in /  0mm
23:49 63.8 °F /  17.7 °C 47.3 °F /  8.5 °C 29.90in /  1012.4hPa SSW 3.0mph /  4.8km/h 9.0mph /  14.5km/h 55% 0.00in /  0mm
23:54 64.0 °F /  17.8 °C 47.5 °F /  8.6 °C 29.90in /  1012.4hPa SW 5.0mph /  8km/h 8.0mph /  12.9km/h 55% 0.00in /  0mm
23:59 64.1 °F /  17.8 °C 47.6 °F /  8.7 °C 29.90in /  1012.4hPa SW 3.0mph /  4.8km/h 6.0mph /  9.7km/h 55% 0.00in /  0mm
Buffalo, New York, USA
Compliments of Weather Underground - 2.5 mb